createdAt,value
2023-01-25T00:00:55.139Z,3.23
2023-01-25T00:01:55.177Z,3.25
2023-01-25T00:02:55.205Z,3.29
2023-01-25T00:03:55.112Z,3.33
2023-01-25T00:04:55.098Z,3.35
2023-01-25T00:05:55.074Z,3.37
2023-01-25T00:06:55.076Z,3.40
2023-01-25T00:07:55.059Z,3.41
2023-01-25T00:08:55.056Z,3.44
2023-01-25T00:09:55.036Z,3.43
2023-01-25T00:10:57.476Z,3.43
2023-01-25T00:11:55.020Z,3.44
2023-01-25T00:12:55.002Z,3.41
2023-01-25T00:13:55.017Z,3.40
2023-01-25T00:14:54.989Z,3.36
2023-01-25T00:15:54.970Z,3.35
2023-01-25T00:16:55.003Z,3.36
2023-01-25T00:17:54.963Z,3.32
2023-01-25T00:18:54.932Z,3.32
2023-01-25T00:19:54.919Z,3.29
2023-01-25T00:20:54.919Z,3.29
2023-01-25T00:21:54.898Z,3.35
2023-01-25T00:22:54.888Z,3.36
2023-01-25T00:23:54.893Z,3.36
2023-01-25T00:24:54.880Z,3.37
2023-01-25T00:25:55.091Z,3.37
2023-01-25T00:26:54.855Z,3.36
2023-01-25T00:27:54.831Z,3.37
2023-01-25T00:28:54.828Z,3.37
2023-01-25T00:29:54.837Z,3.40
2023-01-25T00:30:54.809Z,3.37
2023-01-25T00:31:54.907Z,3.32
2023-01-25T00:32:54.778Z,3.23
2023-01-25T00:33:54.775Z,3.15
2023-01-25T00:34:54.767Z,3.15
2023-01-25T00:35:54.749Z,3.15
2023-01-25T00:36:54.743Z,3.18
2023-01-25T00:37:54.723Z,3.22
2023-01-25T00:38:54.719Z,3.22
2023-01-25T00:39:54.716Z,3.20
2023-01-25T00:40:54.705Z,3.17
2023-01-25T00:41:54.684Z,3.17
2023-01-25T00:42:54.672Z,3.18
2023-01-25T00:43:54.668Z,3.18
2023-01-25T00:44:54.644Z,3.18
2023-01-25T00:45:54.713Z,3.12
2023-01-25T00:46:54.626Z,3.08
2023-01-25T00:47:54.622Z,3.08
2023-01-25T00:48:54.607Z,3.11
2023-01-25T00:49:54.598Z,3.09
2023-01-25T00:50:54.608Z,3.11
2023-01-25T00:51:54.603Z,3.09
2023-01-25T00:52:54.560Z,3.11
2023-01-25T00:53:54.546Z,3.14
2023-01-25T00:54:54.541Z,3.14
2023-01-25T00:55:54.529Z,3.17
2023-01-25T00:56:54.517Z,3.18
2023-01-25T00:57:54.504Z,3.22
2023-01-25T00:58:54.492Z,3.20
2023-01-25T00:59:54.483Z,3.22
2023-01-25T01:00:54.540Z,3.26
2023-01-25T01:01:54.496Z,3.27
2023-01-25T01:02:54.447Z,3.27
2023-01-25T01:03:54.440Z,3.27
2023-01-25T01:04:54.536Z,3.30
2023-01-25T01:05:54.425Z,3.30
2023-01-25T01:06:54.413Z,3.29
2023-01-25T01:07:54.391Z,3.30
2023-01-25T01:08:54.384Z,3.32
2023-01-25T01:09:54.374Z,3.30
2023-01-25T01:10:54.361Z,3.32
2023-01-25T01:11:54.345Z,3.35
2023-01-25T01:12:54.351Z,3.37
2023-01-25T01:13:54.370Z,3.40
2023-01-25T01:14:54.337Z,3.40
2023-01-25T01:15:54.319Z,3.40
2023-01-25T01:16:55.891Z,3.36
2023-01-25T01:17:54.314Z,3.33
2023-01-25T01:18:54.301Z,3.30
2023-01-25T01:19:54.270Z,3.25
2023-01-25T01:20:54.260Z,3.25
2023-01-25T01:21:54.242Z,3.23
2023-01-25T01:22:54.237Z,3.20
2023-01-25T01:23:54.311Z,3.22
2023-01-25T01:24:54.215Z,3.25
2023-01-25T01:25:54.221Z,3.26
2023-01-25T01:26:54.183Z,3.25
2023-01-25T01:27:54.180Z,3.27
2023-01-25T01:28:54.165Z,3.27
2023-01-25T01:29:54.154Z,3.27
2023-01-25T01:30:54.150Z,3.29
2023-01-25T01:31:54.292Z,3.29
2023-01-25T01:32:54.348Z,3.30
2023-01-25T01:33:54.134Z,3.32
2023-01-25T01:34:54.105Z,3.35
2023-01-25T01:35:54.087Z,3.35
2023-01-25T01:36:54.079Z,3.35
2023-01-25T01:37:54.067Z,3.33
2023-01-25T01:38:54.057Z,3.33
2023-01-25T01:39:54.045Z,3.36
2023-01-25T01:40:54.031Z,3.37
2023-01-25T01:41:54.035Z,3.37
2023-01-25T01:42:54.006Z,3.36
2023-01-25T01:43:53.994Z,3.35
2023-01-25T01:44:53.988Z,3.33
2023-01-25T01:45:54.042Z,3.33
2023-01-25T01:46:53.970Z,3.33
2023-01-25T01:47:53.964Z,3.33
2023-01-25T01:48:53.945Z,3.33
2023-01-25T01:49:53.958Z,3.29
2023-01-25T01:50:53.934Z,3.30
2023-01-25T01:51:53.920Z,3.29
2023-01-25T01:52:53.912Z,3.30
2023-01-25T01:53:53.896Z,3.30
2023-01-25T01:54:53.872Z,3.32
2023-01-25T01:55:53.874Z,3.36
2023-01-25T01:56:53.851Z,3.40
2023-01-25T01:57:53.852Z,3.43
2023-01-25T01:58:53.836Z,3.44
2023-01-25T01:59:53.825Z,3.48
2023-01-25T02:00:53.876Z,3.50
2023-01-25T02:01:53.804Z,3.51
2023-01-25T02:02:53.856Z,3.51
2023-01-25T02:03:53.785Z,3.55
2023-01-25T02:04:53.775Z,3.55
2023-01-25T02:05:53.800Z,3.55
2023-01-25T02:06:53.749Z,3.55
2023-01-25T02:07:53.777Z,3.55
2023-01-25T02:08:53.727Z,3.61
2023-01-25T02:09:53.719Z,3.59
2023-01-25T02:10:53.697Z,3.59
2023-01-25T02:11:53.700Z,3.59
2023-01-25T02:12:53.679Z,3.59
2023-01-25T02:13:53.669Z,3.59
2023-01-25T02:14:53.660Z,3.55
2023-01-25T02:15:53.687Z,3.55
2023-01-25T02:16:53.629Z,3.55
2023-01-25T02:17:53.621Z,3.53
2023-01-25T02:18:53.623Z,3.51
2023-01-25T02:19:53.601Z,3.47
2023-01-25T02:20:53.600Z,3.44
2023-01-25T02:21:53.612Z,3.43
2023-01-25T02:22:53.571Z,3.41
2023-01-25T02:23:53.631Z,3.44
2023-01-25T02:24:53.551Z,3.45
2023-01-25T02:25:53.529Z,3.43
2023-01-25T02:26:53.530Z,3.44
2023-01-25T02:27:53.514Z,3.45
2023-01-25T02:28:53.502Z,3.48
2023-01-25T02:29:53.493Z,3.48
2023-01-25T02:30:53.593Z,3.47
2023-01-25T02:31:53.640Z,3.47
2023-01-25T02:32:53.453Z,3.47
2023-01-25T02:33:53.447Z,3.48
2023-01-25T02:34:53.435Z,3.53
2023-01-25T02:35:53.417Z,3.55
2023-01-25T02:36:53.419Z,3.55
2023-01-25T02:37:53.441Z,3.55
2023-01-25T02:38:53.393Z,3.54
2023-01-25T02:39:53.392Z,3.54
2023-01-25T02:40:53.382Z,3.54
2023-01-25T02:41:53.366Z,3.53
2023-01-25T02:42:53.345Z,3.53
2023-01-25T02:43:53.339Z,3.51
2023-01-25T02:44:53.325Z,3.54
2023-01-25T02:45:53.351Z,3.53
2023-01-25T02:46:53.304Z,3.53
2023-01-25T02:47:53.295Z,3.55
2023-01-25T02:48:53.274Z,3.59
2023-01-25T02:49:53.275Z,3.59
2023-01-25T02:50:53.253Z,3.59
2023-01-25T02:51:53.240Z,3.54
2023-01-25T02:52:53.233Z,3.58
2023-01-25T02:53:53.260Z,3.58
2023-01-25T02:54:53.213Z,3.58
2023-01-25T02:55:53.207Z,3.59
2023-01-25T02:56:53.195Z,3.61
2023-01-25T02:57:53.181Z,3.62
2023-01-25T02:58:53.170Z,3.59
2023-01-25T02:59:53.166Z,3.54
2023-01-25T03:00:53.143Z,3.53
2023-01-25T03:01:53.233Z,3.54
2023-01-25T03:02:53.204Z,3.58
2023-01-25T03:03:53.117Z,3.59
2023-01-25T03:04:53.106Z,3.63
2023-01-25T03:05:53.091Z,3.65
2023-01-25T03:06:53.080Z,3.69
2023-01-25T03:07:53.077Z,3.68
2023-01-25T03:08:53.062Z,3.68
2023-01-25T03:09:53.073Z,3.62
2023-01-25T03:10:53.039Z,3.61
2023-01-25T03:11:53.020Z,3.59
2023-01-25T03:12:53.021Z,3.58
2023-01-25T03:13:53.004Z,3.62
2023-01-25T03:14:53.005Z,3.61
2023-01-25T03:15:52.993Z,3.63
2023-01-25T03:16:52.989Z,3.65
2023-01-25T03:17:52.996Z,3.66
2023-01-25T03:18:52.944Z,3.69
2023-01-25T03:19:52.939Z,3.69
2023-01-25T03:20:52.931Z,3.69
2023-01-25T03:21:52.939Z,3.69
2023-01-25T03:22:52.915Z,3.68
2023-01-25T03:23:52.912Z,3.68
2023-01-25T03:24:52.884Z,3.69
2023-01-25T03:25:52.897Z,3.71
2023-01-25T03:26:52.855Z,3.71
2023-01-25T03:27:52.850Z,3.73
2023-01-25T03:28:52.844Z,3.73
2023-01-25T03:29:52.839Z,3.73
2023-01-25T03:30:52.818Z,3.72
2023-01-25T03:31:52.956Z,3.75
2023-01-25T03:32:52.794Z,3.75
2023-01-25T03:33:52.788Z,3.77
2023-01-25T03:34:52.777Z,3.79
2023-01-25T03:35:52.827Z,3.81
2023-01-25T03:36:52.760Z,3.80
2023-01-25T03:37:52.743Z,3.81
2023-01-25T03:38:52.736Z,3.83
2023-01-25T03:39:52.712Z,3.81
2023-01-25T03:40:52.707Z,3.84
2023-01-25T03:41:52.717Z,3.84
2023-01-25T03:42:52.682Z,3.83
2023-01-25T03:43:52.679Z,3.84
2023-01-25T03:44:52.657Z,3.84
2023-01-25T03:45:52.652Z,3.83
2023-01-25T03:46:52.690Z,3.87
2023-01-25T03:47:52.624Z,3.89
2023-01-25T03:48:52.619Z,3.90
2023-01-25T03:49:52.608Z,3.90
2023-01-25T03:50:52.607Z,3.87
2023-01-25T03:51:52.580Z,3.84
2023-01-25T03:52:52.567Z,3.83
2023-01-25T03:53:52.571Z,3.81
2023-01-25T03:54:52.554Z,3.81
2023-01-25T03:55:52.537Z,3.75
2023-01-25T03:56:52.525Z,3.71
2023-01-25T03:57:52.547Z,3.66
2023-01-25T03:58:52.505Z,3.62
2023-01-25T03:59:52.497Z,3.59
2023-01-25T04:00:52.559Z,3.59
2023-01-25T04:01:52.548Z,3.54
2023-01-25T04:02:52.459Z,3.55
2023-01-25T04:03:52.453Z,3.55
2023-01-25T04:04:52.443Z,3.55
2023-01-25T04:05:52.435Z,3.55
2023-01-25T04:06:52.420Z,3.54
2023-01-25T04:07:52.419Z,3.50
2023-01-25T04:08:52.406Z,3.48
2023-01-25T04:09:52.387Z,3.47
2023-01-25T04:10:52.376Z,3.45
2023-01-25T04:11:52.367Z,3.47
2023-01-25T04:12:52.367Z,3.48
2023-01-25T04:13:52.367Z,3.50
2023-01-25T04:14:52.326Z,3.51
2023-01-25T04:15:52.327Z,3.54
2023-01-25T04:16:52.353Z,3.53
2023-01-25T04:17:52.293Z,3.45
2023-01-25T04:18:52.284Z,3.45
2023-01-25T04:19:52.276Z,3.45
2023-01-25T04:20:52.272Z,3.48
2023-01-25T04:21:52.254Z,3.51
2023-01-25T04:22:52.250Z,3.53
2023-01-25T04:23:52.313Z,3.53
2023-01-25T04:24:52.222Z,3.55
2023-01-25T04:25:52.214Z,3.59
2023-01-25T04:26:52.208Z,3.58
2023-01-25T04:27:52.200Z,3.55
2023-01-25T04:28:52.191Z,3.51
2023-01-25T04:29:52.194Z,3.45
2023-01-25T04:30:52.157Z,3.37
2023-01-25T04:31:52.264Z,3.40
2023-01-25T04:32:52.229Z,3.41
2023-01-25T04:33:52.126Z,3.44
2023-01-25T04:34:52.121Z,3.50
2023-01-25T04:35:52.095Z,3.55
2023-01-25T04:36:52.094Z,3.61
2023-01-25T04:37:52.079Z,3.63
2023-01-25T04:38:52.067Z,3.66
2023-01-25T04:39:52.052Z,3.68
2023-01-25T04:40:52.043Z,3.71
2023-01-25T04:41:52.049Z,3.71
2023-01-25T04:42:52.037Z,3.73
2023-01-25T04:43:52.016Z,3.73
2023-01-25T04:44:52.000Z,3.73
2023-01-25T04:45:52.094Z,3.75
2023-01-25T04:46:51.987Z,3.73
2023-01-25T04:47:51.976Z,3.73
2023-01-25T04:48:51.953Z,3.73
2023-01-25T04:49:51.953Z,3.72
2023-01-25T04:50:51.935Z,3.71
2023-01-25T04:51:51.924Z,3.61
2023-01-25T04:52:51.908Z,3.58
2023-01-25T04:53:51.896Z,3.54
2023-01-25T04:54:51.887Z,3.58
2023-01-25T04:55:51.879Z,3.54
2023-01-25T04:56:51.870Z,3.51
2023-01-25T04:57:51.858Z,3.51
2023-01-25T04:58:51.847Z,3.53
2023-01-25T04:59:51.830Z,3.55
2023-01-25T05:00:51.857Z,3.54
2023-01-25T05:01:51.852Z,3.48
2023-01-25T05:02:51.804Z,3.43
2023-01-25T05:03:51.795Z,3.36
2023-01-25T05:04:51.798Z,3.33
2023-01-25T05:05:51.799Z,3.27
2023-01-25T05:06:51.767Z,3.23
2023-01-25T05:07:51.746Z,3.20
2023-01-25T05:08:51.745Z,3.17
2023-01-25T05:09:51.730Z,3.17
2023-01-25T05:10:51.715Z,3.17
2023-01-25T05:11:51.702Z,3.14
2023-01-25T05:12:51.702Z,3.15
2023-01-25T05:13:51.683Z,3.17
2023-01-25T05:14:51.665Z,3.18
2023-01-25T05:15:51.660Z,3.17
2023-01-25T05:16:51.705Z,3.15
2023-01-25T05:17:51.665Z,3.18
2023-01-25T05:18:51.627Z,3.17
2023-01-25T05:19:51.623Z,3.18
2023-01-25T05:20:51.612Z,3.20
2023-01-25T05:21:51.610Z,3.25
2023-01-25T05:22:51.583Z,3.27
2023-01-25T05:23:51.611Z,3.30
2023-01-25T05:24:51.564Z,3.33
2023-01-25T05:25:51.542Z,3.37
2023-01-25T05:26:51.538Z,3.45
2023-01-25T05:27:51.522Z,3.50
2023-01-25T05:28:51.517Z,3.51
2023-01-25T05:29:51.515Z,3.50
2023-01-25T05:30:51.597Z,3.44
2023-01-25T05:31:51.525Z,3.40
2023-01-25T05:32:51.478Z,3.35
2023-01-25T05:33:51.484Z,3.29
2023-01-25T05:34:51.443Z,3.27
2023-01-25T05:35:51.432Z,3.26
2023-01-25T05:36:51.435Z,3.22
2023-01-25T05:37:51.418Z,3.23
2023-01-25T05:38:51.403Z,3.26
2023-01-25T05:39:51.395Z,3.22
2023-01-25T05:40:51.382Z,3.20
2023-01-25T05:41:51.386Z,3.26
2023-01-25T05:42:51.356Z,3.29
2023-01-25T05:43:51.351Z,3.35
2023-01-25T05:44:51.336Z,3.36
2023-01-25T05:45:51.357Z,3.37
2023-01-25T05:46:51.319Z,3.37
2023-01-25T05:47:51.316Z,3.41
2023-01-25T05:48:51.291Z,3.47
2023-01-25T05:49:51.312Z,3.50
2023-01-25T05:50:51.276Z,3.51
2023-01-25T05:51:51.257Z,3.45
2023-01-25T05:52:51.252Z,3.36
2023-01-25T05:53:51.241Z,3.30
2023-01-25T05:54:51.240Z,3.30
2023-01-25T05:55:51.229Z,3.30
2023-01-25T05:56:51.226Z,3.29
2023-01-25T05:57:51.192Z,3.33
2023-01-25T05:58:51.190Z,3.40
2023-01-25T05:59:51.184Z,3.35
2023-01-25T06:00:51.169Z,3.35
2023-01-25T06:01:51.155Z,3.29
2023-01-25T06:02:51.355Z,3.22
2023-01-25T06:03:51.136Z,3.18
2023-01-25T06:04:51.116Z,3.20
2023-01-25T06:05:51.144Z,3.22
2023-01-25T06:06:51.095Z,3.18
2023-01-25T06:07:51.082Z,3.17
2023-01-25T06:08:51.077Z,3.20
2023-01-25T06:09:51.072Z,3.15
2023-01-25T06:10:51.064Z,3.12
2023-01-25T06:11:51.057Z,3.09
2023-01-25T06:12:51.038Z,3.09
2023-01-25T06:13:51.023Z,3.07
2023-01-25T06:14:51.017Z,3.08
2023-01-25T06:15:51.045Z,3.08
2023-01-25T06:16:50.998Z,3.09
2023-01-25T06:17:50.978Z,3.09
2023-01-25T06:18:50.968Z,3.14
2023-01-25T06:19:50.959Z,3.17
2023-01-25T06:20:50.937Z,3.18
2023-01-25T06:21:50.955Z,3.20
2023-01-25T06:22:50.930Z,3.23
2023-01-25T06:23:50.942Z,3.25
2023-01-25T06:24:50.900Z,3.26
2023-01-25T06:25:50.883Z,3.29
2023-01-25T06:26:50.872Z,3.30
2023-01-25T06:27:50.871Z,3.32
2023-01-25T06:28:52.655Z,3.32
2023-01-25T06:29:50.846Z,3.27
2023-01-25T06:30:50.921Z,3.25
2023-01-25T06:31:50.896Z,3.22
2023-01-25T06:32:50.815Z,3.22
2023-01-25T06:33:50.793Z,3.20
2023-01-25T06:34:50.784Z,3.25
2023-01-25T06:35:50.787Z,3.26
2023-01-25T06:36:50.767Z,3.25
2023-01-25T06:37:50.777Z,3.25
2023-01-25T06:38:50.786Z,3.27
2023-01-25T06:39:50.752Z,3.30
2023-01-25T06:40:50.716Z,3.26
2023-01-25T06:41:50.724Z,3.20
2023-01-25T06:42:50.706Z,3.12
2023-01-25T06:43:50.688Z,3.11
2023-01-25T06:44:50.690Z,3.08
2023-01-25T06:45:50.675Z,3.08
2023-01-25T06:46:50.730Z,3.07
2023-01-25T06:47:50.644Z,3.08
2023-01-25T06:48:50.639Z,3.07
2023-01-25T06:49:50.629Z,3.05
2023-01-25T06:50:50.611Z,3.05
2023-01-25T06:51:50.605Z,3.07
2023-01-25T06:52:50.585Z,3.09
2023-01-25T06:53:50.614Z,3.11
2023-01-25T06:54:50.567Z,3.15
2023-01-25T06:55:52.563Z,3.14
2023-01-25T06:56:50.541Z,3.14
2023-01-25T06:57:50.532Z,3.14
2023-01-25T06:58:50.528Z,3.09
2023-01-25T06:59:50.513Z,3.08
2023-01-25T07:00:50.507Z,3.07
2023-01-25T07:01:50.560Z,3.08
2023-01-25T07:02:50.535Z,3.09
2023-01-25T07:03:50.474Z,3.09
2023-01-25T07:04:50.457Z,3.04
2023-01-25T07:05:50.446Z,3.02
2023-01-25T07:06:50.443Z,3.00
2023-01-25T07:07:50.430Z,2.99
2023-01-25T07:08:50.416Z,3.00
2023-01-25T07:09:50.436Z,3.04
2023-01-25T07:10:50.393Z,3.09
2023-01-25T07:11:50.372Z,3.12
2023-01-25T07:12:50.373Z,3.14
2023-01-25T07:13:50.357Z,3.08
2023-01-25T07:14:50.349Z,3.05
2023-01-25T07:15:50.334Z,3.04
2023-01-25T07:16:50.334Z,3.04
2023-01-25T07:17:50.316Z,3.05
2023-01-25T07:18:50.305Z,3.08
2023-01-25T07:19:50.291Z,3.09
2023-01-25T07:20:50.276Z,3.09
2023-01-25T07:21:50.272Z,3.07
2023-01-25T07:22:50.254Z,3.09
2023-01-25T07:23:50.342Z,3.05
2023-01-25T07:24:52.264Z,3.09
2023-01-25T07:25:50.253Z,3.15
2023-01-25T07:26:50.206Z,3.15
2023-01-25T07:27:52.200Z,3.15
2023-01-25T07:28:50.183Z,3.15
2023-01-25T07:29:50.186Z,3.15
2023-01-25T07:30:50.169Z,3.14
2023-01-25T07:31:50.203Z,3.12
2023-01-25T07:32:50.145Z,3.09
2023-01-25T07:33:50.137Z,3.12
2023-01-25T07:34:50.138Z,3.14
2023-01-25T07:35:50.112Z,3.15
2023-01-25T07:36:50.093Z,3.15
2023-01-25T07:37:50.089Z,3.17
2023-01-25T07:38:50.085Z,3.18
2023-01-25T07:39:50.068Z,3.14
2023-01-25T07:40:50.076Z,3.08
2023-01-25T07:41:50.069Z,3.08
2023-01-25T07:42:50.032Z,3.09
2023-01-25T07:43:50.033Z,3.15
2023-01-25T07:44:50.006Z,3.17
2023-01-25T07:45:49.999Z,3.12
2023-01-25T07:46:49.998Z,3.09
2023-01-25T07:47:49.972Z,3.09
2023-01-25T07:48:49.965Z,3.07
2023-01-25T07:49:49.950Z,3.08
2023-01-25T07:50:49.950Z,3.11
2023-01-25T07:51:49.932Z,3.08
2023-01-25T07:52:49.932Z,3.08
2023-01-25T07:53:49.904Z,3.04
2023-01-25T07:54:49.894Z,2.94
2023-01-25T07:55:49.894Z,2.94
2023-01-25T07:56:49.874Z,2.94
2023-01-25T07:57:49.891Z,2.93
2023-01-25T07:58:49.857Z,2.94
2023-01-25T07:59:49.842Z,2.99
2023-01-25T08:00:49.839Z,3.02
2023-01-25T08:01:49.834Z,3.05
2023-01-25T08:02:51.832Z,3.04
2023-01-25T08:03:49.798Z,3.02
2023-01-25T08:04:49.789Z,3.07
2023-01-25T08:05:49.778Z,3.09
2023-01-25T08:06:49.770Z,3.15
2023-01-25T08:07:49.770Z,3.22
2023-01-25T08:08:49.750Z,3.29
2023-01-25T08:09:49.737Z,3.40
2023-01-25T08:10:49.714Z,3.50
2023-01-25T08:11:49.717Z,3.54
2023-01-25T08:12:49.699Z,3.48
2023-01-25T08:13:51.720Z,3.33
2023-01-25T08:14:49.677Z,3.22
2023-01-25T08:15:49.667Z,3.15
2023-01-25T08:16:49.656Z,3.07
2023-01-25T08:17:49.638Z,2.99
2023-01-25T08:18:49.634Z,2.96
2023-01-25T08:19:49.639Z,2.90
2023-01-25T08:20:49.607Z,2.87
2023-01-25T08:21:49.603Z,2.82
2023-01-25T08:22:49.595Z,2.81
2023-01-25T08:23:49.628Z,2.87
2023-01-25T08:24:49.563Z,2.93
2023-01-25T08:25:49.564Z,2.94
2023-01-25T08:26:49.539Z,2.96
2023-01-25T08:27:49.548Z,2.96
2023-01-25T08:28:49.516Z,2.91
2023-01-25T08:29:49.529Z,2.91
2023-01-25T08:30:57.324Z,2.89
2023-01-25T08:31:49.646Z,2.90
2023-01-25T08:32:49.494Z,2.89
2023-01-25T08:33:49.469Z,2.89
2023-01-25T08:34:49.457Z,2.93
2023-01-25T08:35:49.453Z,2.96
2023-01-25T08:37:49.424Z,2.94
2023-01-25T08:38:49.409Z,2.93
2023-01-25T08:39:49.394Z,2.96
2023-01-25T08:40:49.396Z,3.00
2023-01-25T08:41:49.374Z,3.02
2023-01-25T08:42:49.386Z,2.99
2023-01-25T08:43:49.363Z,2.99
2023-01-25T08:44:49.377Z,3.04
2023-01-25T08:45:49.357Z,3.07
2023-01-25T08:46:49.506Z,3.04
2023-01-25T08:47:49.321Z,3.00
2023-01-25T08:48:49.305Z,2.97
2023-01-25T08:49:49.289Z,2.96
2023-01-25T08:50:49.278Z,2.93
2023-01-25T08:51:49.465Z,2.93
2023-01-25T08:52:49.259Z,2.96
2023-01-25T08:53:49.251Z,2.99
2023-01-25T08:54:49.231Z,2.97
2023-01-25T08:55:49.223Z,2.99
2023-01-25T08:56:49.212Z,3.04
2023-01-25T08:57:49.203Z,3.11
2023-01-25T08:58:49.195Z,3.17
2023-01-25T08:59:49.183Z,3.22
2023-01-25T09:00:49.166Z,3.25
2023-01-25T09:01:49.191Z,3.29
2023-01-25T09:02:49.148Z,3.32
2023-01-25T09:03:49.278Z,3.33
2023-01-25T09:04:49.128Z,3.29
2023-01-25T09:05:49.114Z,3.25
2023-01-25T09:06:49.115Z,3.23
2023-01-25T09:07:49.091Z,3.29
2023-01-25T09:08:49.082Z,3.25
2023-01-25T09:09:49.075Z,3.22
2023-01-25T09:10:49.068Z,3.20
2023-01-25T09:11:49.052Z,3.17
2023-01-25T09:12:49.031Z,3.20
2023-01-25T09:13:49.129Z,3.15
2023-01-25T09:14:49.019Z,3.05
2023-01-25T09:15:49.015Z,3.00
2023-01-25T09:16:48.998Z,3.02
2023-01-25T09:17:49.011Z,2.97
2023-01-25T09:18:50.737Z,2.94
2023-01-25T09:20:48.953Z,3.00
2023-01-25T09:21:48.938Z,2.99
2023-01-25T09:22:48.931Z,2.96
2023-01-25T09:24:05.143Z,2.89
2023-01-25T09:24:48.992Z,2.89
2023-01-25T09:25:48.897Z,2.93
2023-01-25T09:26:58.983Z,2.93
2023-01-25T09:27:48.872Z,2.96
2023-01-25T09:28:48.864Z,2.90
2023-01-25T09:30:01.046Z,2.90
2023-01-25T09:30:59.143Z,2.82
2023-01-25T09:31:48.922Z,2.78
2023-01-25T09:32:49.020Z,2.75
2023-01-25T09:33:48.837Z,2.75
2023-01-25T09:34:48.803Z,2.78
2023-01-25T09:35:48.777Z,2.76
2023-01-25T09:36:48.775Z,2.78
2023-01-25T09:37:48.764Z,2.86
2023-01-25T09:38:48.750Z,2.87
2023-01-25T09:39:48.745Z,2.87
2023-01-25T09:40:48.723Z,2.81
2023-01-25T09:41:48.716Z,2.84
2023-01-25T09:42:48.707Z,2.86
2023-01-25T09:43:48.689Z,2.94
2023-01-25T09:44:48.684Z,3.00
2023-01-25T09:45:48.666Z,3.02
2023-01-25T09:46:48.675Z,3.04
2023-01-25T09:47:48.657Z,3.05
2023-01-25T09:48:51.797Z,3.05
2023-01-25T09:49:48.653Z,3.09
2023-01-25T09:50:48.617Z,3.08
2023-01-25T09:51:48.606Z,3.07
2023-01-25T09:52:48.591Z,2.97
2023-01-25T09:53:48.578Z,2.94
2023-01-25T09:54:48.586Z,3.00
2023-01-25T09:55:48.560Z,3.05
2023-01-25T09:56:48.551Z,3.12
2023-01-25T09:57:48.537Z,3.18
2023-01-25T09:58:48.522Z,3.29
2023-01-25T09:59:48.531Z,3.35
2023-01-25T10:00:48.509Z,3.40
2023-01-25T10:01:48.527Z,3.41
2023-01-25T10:02:48.495Z,3.41
2023-01-25T10:03:48.718Z,3.32
2023-01-25T10:04:48.463Z,3.18
2023-01-25T10:05:48.482Z,3.08
2023-01-25T10:06:59.672Z,2.97
2023-01-25T10:07:48.443Z,2.96
2023-01-25T10:08:48.414Z,2.91
2023-01-25T10:09:48.473Z,2.87
2023-01-25T10:10:48.392Z,2.81
2023-01-25T10:11:48.381Z,2.82
2023-01-25T10:12:48.383Z,2.82
2023-01-25T10:13:48.364Z,2.84
2023-01-25T10:14:48.366Z,2.87
2023-01-25T10:15:48.408Z,2.94
2023-01-25T10:16:48.444Z,3.05
2023-01-25T10:17:48.324Z,3.12
2023-01-25T10:18:48.313Z,3.14
2023-01-25T10:19:48.349Z,3.23
2023-01-25T10:20:48.288Z,3.33
2023-01-25T10:21:48.297Z,3.41
2023-01-25T10:22:48.257Z,3.37
2023-01-25T10:23:48.263Z,3.29
2023-01-25T10:24:48.235Z,3.11
2023-01-25T10:25:48.223Z,3.05
2023-01-25T10:26:48.219Z,3.08
2023-01-25T10:27:48.259Z,3.14
2023-01-25T10:28:48.202Z,3.18
2023-01-25T10:29:48.224Z,3.14
2023-01-25T10:30:48.235Z,2.97
2023-01-25T10:31:48.171Z,2.86
2023-01-25T10:32:55.884Z,2.82
2023-01-25T10:33:48.169Z,2.86
2023-01-25T10:34:56.344Z,2.87
2023-01-25T10:35:48.427Z,2.90
2023-01-25T10:36:48.105Z,2.93
2023-01-25T10:37:48.127Z,2.97
2023-01-25T10:38:48.082Z,3.02
2023-01-25T10:39:48.074Z,3.07
2023-01-25T10:40:48.065Z,3.14
2023-01-25T10:41:48.296Z,3.20
2023-01-25T10:42:48.037Z,3.23
2023-01-25T10:43:48.031Z,3.26
2023-01-25T10:44:48.020Z,3.32
2023-01-25T10:45:48.019Z,3.35
2023-01-25T10:46:48.016Z,3.37
2023-01-25T10:47:47.983Z,3.36
2023-01-25T10:48:47.979Z,3.41
2023-01-25T10:49:48.021Z,3.45
2023-01-25T10:50:47.990Z,3.50
2023-01-25T10:51:47.952Z,3.58
2023-01-25T10:52:47.933Z,3.62
2023-01-25T10:53:47.939Z,3.58
2023-01-25T10:54:47.919Z,3.43
2023-01-25T10:55:47.897Z,3.29
2023-01-25T10:56:47.892Z,3.11
2023-01-25T10:57:47.879Z,3.02
2023-01-25T10:58:47.866Z,2.90
2023-01-25T10:59:47.916Z,2.81
2023-01-25T11:00:47.844Z,2.76
2023-01-25T11:01:47.872Z,2.73
2023-01-25T11:02:47.900Z,2.78
2023-01-25T11:03:47.805Z,2.78
2023-01-25T11:04:47.807Z,2.73
2023-01-25T11:05:47.791Z,2.72
2023-01-25T11:06:47.773Z,2.79
2023-01-25T11:07:47.773Z,2.87
2023-01-25T11:08:47.752Z,2.93
2023-01-25T11:09:47.779Z,2.97
2023-01-25T11:10:47.748Z,3.00
2023-01-25T11:11:47.727Z,3.02
2023-01-25T11:12:47.722Z,3.00
2023-01-25T11:13:47.695Z,3.04
2023-01-25T11:14:47.709Z,3.05
2023-01-25T11:15:47.736Z,2.97
2023-01-25T11:16:47.673Z,2.89
2023-01-25T11:17:49.603Z,2.93
2023-01-25T11:18:47.639Z,2.93
2023-01-25T11:19:47.634Z,2.93
2023-01-25T11:20:47.623Z,2.97
2023-01-25T11:21:47.613Z,3.08
2023-01-25T11:22:47.637Z,3.07
2023-01-25T11:23:49.152Z,3.00
2023-01-25T11:24:47.630Z,2.94
2023-01-25T11:25:47.591Z,2.87
2023-01-25T11:26:47.562Z,2.82
2023-01-25T11:27:47.546Z,2.81
2023-01-25T11:28:47.527Z,2.89
2023-01-25T11:29:47.539Z,2.94
2023-01-25T11:30:47.611Z,3.02
2023-01-25T11:31:47.561Z,3.02
2023-01-25T11:32:47.526Z,3.00
2023-01-25T11:33:47.482Z,2.91
2023-01-25T11:34:47.468Z,2.87
2023-01-25T11:35:47.503Z,2.84
2023-01-25T11:36:47.461Z,2.87
2023-01-25T11:37:47.434Z,2.87
2023-01-25T11:38:47.423Z,2.84
2023-01-25T11:39:47.414Z,2.87
2023-01-25T11:40:47.409Z,2.84
2023-01-25T11:41:47.435Z,2.84
2023-01-25T11:42:47.379Z,2.91
2023-01-25T11:43:47.369Z,2.99
2023-01-25T11:44:47.355Z,3.07
2023-01-25T11:45:47.349Z,3.14
2023-01-25T11:46:47.436Z,3.20
2023-01-25T11:47:47.317Z,3.27
2023-01-25T11:48:47.316Z,3.33
2023-01-25T11:49:47.313Z,3.25
2023-01-25T11:50:47.311Z,3.09
2023-01-25T11:51:48.923Z,3.04
2023-01-25T11:52:47.269Z,2.91
2023-01-25T11:53:47.269Z,2.84
2023-01-25T11:54:47.248Z,2.73
2023-01-25T11:55:47.241Z,2.71
2023-01-25T11:56:47.233Z,2.71
2023-01-25T11:57:47.243Z,2.69
2023-01-25T11:58:47.202Z,2.73
2023-01-25T11:59:47.194Z,2.75
2023-01-25T12:00:47.174Z,2.79
2023-01-25T12:01:47.170Z,2.72
2023-01-25T12:02:47.199Z,2.72
2023-01-25T12:03:47.202Z,2.71
2023-01-25T12:04:47.130Z,2.65
2023-01-25T12:05:47.118Z,2.65
2023-01-25T12:06:47.115Z,2.62
2023-01-25T12:07:47.113Z,2.68
2023-01-25T12:08:47.101Z,2.76
2023-01-25T12:09:47.095Z,2.84
2023-01-25T12:10:47.067Z,2.90
2023-01-25T12:11:47.067Z,2.94
2023-01-25T12:12:47.060Z,2.97
2023-01-25T12:13:47.066Z,3.07
2023-01-25T12:14:47.018Z,3.14
2023-01-25T12:15:47.120Z,3.18
2023-01-25T12:16:46.996Z,3.20
2023-01-25T12:17:46.992Z,3.17
2023-01-25T12:18:46.986Z,3.02
2023-01-25T12:19:46.989Z,2.94
2023-01-25T12:20:46.959Z,2.87
2023-01-25T12:21:46.948Z,2.72
2023-01-25T12:22:46.930Z,2.62
2023-01-25T12:23:46.963Z,2.49
2023-01-25T12:24:46.908Z,2.42
2023-01-25T12:25:46.907Z,2.44
2023-01-25T12:26:46.893Z,2.49
2023-01-25T12:27:46.885Z,2.53
2023-01-25T12:28:46.875Z,2.56
2023-01-25T12:29:46.879Z,2.62
2023-01-25T12:30:46.860Z,2.57
2023-01-25T12:31:46.893Z,2.54
2023-01-25T12:32:46.818Z,2.54
2023-01-25T12:33:46.826Z,2.56
2023-01-25T12:34:46.818Z,2.57
2023-01-25T12:35:46.788Z,2.57
2023-01-25T12:36:46.781Z,2.53
2023-01-25T12:37:46.782Z,2.50
2023-01-25T12:38:46.753Z,2.50
2023-01-25T12:39:46.759Z,2.52
2023-01-25T12:40:46.752Z,2.54
2023-01-25T12:41:46.792Z,2.53
2023-01-25T12:42:46.709Z,2.49
2023-01-25T12:43:46.704Z,2.53
2023-01-25T12:44:46.693Z,2.57
2023-01-25T12:45:46.749Z,2.59
2023-01-25T12:46:46.699Z,2.62
2023-01-25T12:47:46.662Z,2.62
2023-01-25T12:48:46.665Z,2.69
2023-01-25T12:49:46.629Z,2.81
2023-01-25T12:50:46.619Z,2.90
2023-01-25T12:51:46.613Z,3.02
2023-01-25T12:52:46.613Z,3.11
2023-01-25T12:53:46.605Z,3.20
2023-01-25T12:54:46.588Z,3.30
2023-01-25T12:55:46.588Z,3.35
2023-01-25T12:56:46.599Z,3.36
2023-01-25T12:57:46.542Z,3.36
2023-01-25T12:58:46.541Z,3.43
2023-01-25T12:59:46.531Z,3.43
2023-01-25T13:00:46.575Z,3.48
2023-01-25T13:01:46.560Z,3.54
2023-01-25T13:02:46.508Z,3.55
2023-01-25T13:03:46.475Z,3.51
2023-01-25T13:04:46.475Z,3.26
2023-01-25T13:05:46.461Z,3.02
2023-01-25T13:06:46.451Z,2.75
2023-01-25T13:07:46.433Z,2.64
2023-01-25T13:08:48.784Z,2.71
2023-01-25T13:09:46.418Z,2.81
2023-01-25T13:10:46.406Z,2.91
2023-01-25T13:11:46.391Z,2.96
2023-01-25T13:12:46.389Z,2.96
2023-01-25T13:13:46.372Z,3.00
2023-01-25T13:14:46.366Z,3.05
2023-01-25T13:15:46.349Z,3.11
2023-01-25T13:16:46.333Z,3.12
2023-01-25T13:17:46.356Z,3.07
2023-01-25T13:18:46.318Z,3.08
2023-01-25T13:19:46.315Z,3.11
2023-01-25T13:20:48.291Z,3.00